sensor_id;sensor_type;location;lat;lon;timestamp;P1;durP1;ratioP1;P2;durP2;ratioP2
40847;SDS011;26570;50.962;5.340;2022-12-07T01:01:52;42.17;;;23.17;;
40847;SDS011;26570;50.962;5.340;2022-12-07T01:04:38;39.00;;;23.80;;
40847;SDS011;26570;50.962;5.340;2022-12-07T01:07:26;47.83;;;25.37;;
40847;SDS011;26570;50.962;5.340;2022-12-07T01:10:13;47.17;;;25.87;;
40847;SDS011;26570;50.962;5.340;2022-12-07T01:13:22;47.13;;;25.73;;
40847;SDS011;26570;50.962;5.340;2022-12-07T01:16:09;49.40;;;26.00;;
40847;SDS011;26570;50.962;5.340;2022-12-07T01:18:57;42.37;;;25.87;;
40847;SDS011;26570;50.962;5.340;2022-12-07T01:21:45;45.40;;;26.10;;
40847;SDS011;26570;50.962;5.340;2022-12-07T01:24:30;48.00;;;26.00;;
40847;SDS011;26570;50.962;5.340;2022-12-07T01:27:17;47.97;;;26.27;;
40847;SDS011;26570;50.962;5.340;2022-12-07T01:30:05;43.77;;;26.37;;
40847;SDS011;26570;50.962;5.340;2022-12-07T01:32:52;44.43;;;26.43;;
40847;SDS011;26570;50.962;5.340;2022-12-07T01:35:38;50.03;;;26.80;;
40847;SDS011;26570;50.962;5.340;2022-12-07T01:38:24;43.37;;;26.70;;
40847;SDS011;26570;50.962;5.340;2022-12-07T01:41:14;41.57;;;25.80;;
40847;SDS011;26570;50.962;5.340;2022-12-07T01:47:07;44.90;;;25.53;;
40847;SDS011;26570;50.962;5.340;2022-12-07T01:49:53;44.17;;;27.13;;
40847;SDS011;26570;50.962;5.340;2022-12-07T01:52:39;44.47;;;27.10;;
40847;SDS011;26570;50.962;5.340;2022-12-07T01:55:30;44.77;;;26.43;;
40847;SDS011;26570;50.962;5.340;2022-12-07T01:58:16;42.07;;;25.37;;
40847;SDS011;26570;50.962;5.340;2022-12-07T02:01:02;43.33;;;25.60;;
40847;SDS011;26570;50.962;5.340;2022-12-07T02:03:49;44.33;;;25.80;;
40847;SDS011;26570;50.962;5.340;2022-12-07T02:06:35;42.37;;;25.57;;
40847;SDS011;26570;50.962;5.340;2022-12-07T02:09:23;43.10;;;26.50;;
40847;SDS011;26570;50.962;5.340;2022-12-07T02:12:08;46.13;;;27.53;;
40847;SDS011;26570;50.962;5.340;2022-12-07T02:14:55;48.40;;;27.47;;
40847;SDS011;26570;50.962;5.340;2022-12-07T02:20:57;44.42;;;24.90;;
40847;SDS011;26570;50.962;5.340;2022-12-07T02:30:16;46.77;;;25.97;;
40847;SDS011;26570;50.962;5.340;2022-12-07T02:33:19;58.70;;;27.27;;
40847;SDS011;26570;50.962;5.340;2022-12-07T02:36:30;51.20;;;27.40;;
40847;SDS011;26570;50.962;5.340;2022-12-07T02:39:28;44.77;;;26.30;;
40847;SDS011;26570;50.962;5.340;2022-12-07T02:42:36;47.57;;;26.00;;
40847;SDS011;26570;50.962;5.340;2022-12-07T02:45:25;51.10;;;26.80;;
40847;SDS011;26570;50.962;5.340;2022-12-07T02:48:13;49.90;;;28.83;;
40847;SDS011;26570;50.962;5.340;2022-12-07T02:51:02;48.53;;;27.90;;
40847;SDS011;26570;50.962;5.340;2022-12-07T02:53:50;57.97;;;31.07;;
40847;SDS011;26570;50.962;5.340;2022-12-07T03:00:05;53.17;;;30.80;;
40847;SDS011;26570;50.962;5.340;2022-12-07T03:03:00;53.30;;;30.50;;
40847;SDS011;26570;50.962;5.340;2022-12-07T03:12:32;55.47;;;32.97;;
40847;SDS011;26570;50.962;5.340;2022-12-07T03:18:52;55.70;;;31.23;;
40847;SDS011;26570;50.962;5.340;2022-12-07T03:22:14;54.27;;;31.43;;
40847;SDS011;26570;50.962;5.340;2022-12-07T03:25:21;55.23;;;32.77;;
40847;SDS011;26570;50.962;5.340;2022-12-07T03:28:08;54.80;;;32.03;;
40847;SDS011;26570;50.962;5.340;2022-12-07T03:31:38;58.50;;;34.23;;
40847;SDS011;26570;50.962;5.340;2022-12-07T03:35:22;58.37;;;33.67;;
40847;SDS011;26570;50.962;5.340;2022-12-07T03:38:15;57.67;;;33.53;;
40847;SDS011;26570;50.962;5.340;2022-12-07T03:41:55;54.67;;;32.10;;
40847;SDS011;26570;50.962;5.340;2022-12-07T03:44:55;60.57;;;34.97;;
40847;SDS011;26570;50.962;5.340;2022-12-07T03:47:54;58.63;;;33.17;;
40847;SDS011;26570;50.962;5.340;2022-12-07T03:51:45;57.27;;;34.43;;
40847;SDS011;26570;50.962;5.340;2022-12-07T03:58:52;58.67;;;35.00;;
40847;SDS011;26570;50.962;5.340;2022-12-07T04:01:43;57.63;;;34.40;;
40847;SDS011;26570;50.962;5.340;2022-12-07T04:05:13;51.40;;;31.37;;
40847;SDS011;26570;50.962;5.340;2022-12-07T04:08:10;50.57;;;30.97;;
40847;SDS011;26570;50.962;5.340;2022-12-07T04:11:25;58.10;;;30.27;;
40847;SDS011;26570;50.962;5.340;2022-12-07T04:14:17;51.83;;;30.17;;
40847;SDS011;26570;50.962;5.340;2022-12-07T04:17:31;49.10;;;29.67;;
40847;SDS011;26570;50.962;5.340;2022-12-07T04:20:39;46.53;;;29.13;;
40847;SDS011;26570;50.962;5.340;2022-12-07T04:23:38;53.07;;;30.40;;
40847;SDS011;26570;50.962;5.340;2022-12-07T04:27:04;53.53;;;30.17;;
40847;SDS011;26570;50.962;5.340;2022-12-07T04:30:19;51.38;;;30.08;;
40847;SDS011;26570;50.962;5.340;2022-12-07T04:33:08;53.93;;;27.77;;
40847;SDS011;26570;50.962;5.340;2022-12-07T04:36:29;52.40;;;29.97;;
40847;SDS011;26570;50.962;5.340;2022-12-07T04:39:58;51.03;;;30.97;;
40847;SDS011;26570;50.962;5.340;2022-12-07T04:42:55;60.03;;;36.50;;
40847;SDS011;26570;50.962;5.340;2022-12-07T04:46:13;63.17;;;34.77;;
40847;SDS011;26570;50.962;5.340;2022-12-07T04:49:04;59.10;;;33.67;;
40847;SDS011;26570;50.962;5.340;2022-12-07T04:52:37;62.97;;;34.77;;
40847;SDS011;26570;50.962;5.340;2022-12-07T04:55:55;56.80;;;34.23;;
40847;SDS011;26570;50.962;5.340;2022-12-07T04:58:46;57.30;;;33.50;;
40847;SDS011;26570;50.962;5.340;2022-12-07T05:02:13;62.63;;;33.47;;
40847;SDS011;26570;50.962;5.340;2022-12-07T05:05:08;67.83;;;35.77;;
40847;SDS011;26570;50.962;5.340;2022-12-07T05:07:58;61.17;;;34.63;;
40847;SDS011;26570;50.962;5.340;2022-12-07T05:11:22;56.33;;;31.73;;
40847;SDS011;26570;50.962;5.340;2022-12-07T05:14:32;53.77;;;29.03;;
40847;SDS011;26570;50.962;5.340;2022-12-07T05:17:30;169.87;;;34.17;;
40847;SDS011;26570;50.962;5.340;2022-12-07T05:20:43;61.37;;;29.00;;
40847;SDS011;26570;50.962;5.340;2022-12-07T05:23:55;46.00;;;28.43;;
40847;SDS011;26570;50.962;5.340;2022-12-07T05:26:47;60.60;;;32.10;;
40847;SDS011;26570;50.962;5.340;2022-12-07T05:29:43;64.93;;;32.33;;
40847;SDS011;26570;50.962;5.340;2022-12-07T05:32:33;77.37;;;36.97;;
40847;SDS011;26570;50.962;5.340;2022-12-07T05:36:21;58.23;;;31.60;;
40847;SDS011;26570;50.962;5.340;2022-12-07T05:40:08;49.13;;;29.80;;
40847;SDS011;26570;50.962;5.340;2022-12-07T05:43:08;51.23;;;30.07;;
40847;SDS011;26570;50.962;5.340;2022-12-07T05:46:04;45.90;;;29.03;;
40847;SDS011;26570;50.962;5.340;2022-12-07T05:49:10;56.67;;;30.03;;
40847;SDS011;26570;50.962;5.340;2022-12-07T05:52:00;55.77;;;32.47;;
40847;SDS011;26570;50.962;5.340;2022-12-07T05:55:30;61.27;;;32.17;;
40847;SDS011;26570;50.962;5.340;2022-12-07T05:58:45;53.53;;;31.43;;
40847;SDS011;26570;50.962;5.340;2022-12-07T06:02:01;52.60;;;31.20;;
40847;SDS011;26570;50.962;5.340;2022-12-07T06:05:17;57.53;;;32.17;;
40847;SDS011;26570;50.962;5.340;2022-12-07T06:08:27;69.83;;;34.47;;
40847;SDS011;26570;50.962;5.340;2022-12-07T06:11:25;57.83;;;32.03;;
40847;SDS011;26570;50.962;5.340;2022-12-07T06:15:09;65.20;;;35.07;;
40847;SDS011;26570;50.962;5.340;2022-12-07T06:18:06;77.37;;;38.30;;
40847;SDS011;26570;50.962;5.340;2022-12-07T06:21:02;81.63;;;43.37;;
40847;SDS011;26570;50.962;5.340;2022-12-07T06:24:00;85.30;;;41.40;;
40847;SDS011;26570;50.962;5.340;2022-12-07T06:27:22;85.90;;;43.27;;
40847;SDS011;26570;50.962;5.340;2022-12-07T06:30:22;78.20;;;40.93;;
40847;SDS011;26570;50.962;5.340;2022-12-07T06:33:34;67.67;;;37.13;;
40847;SDS011;26570;50.962;5.340;2022-12-07T06:36:46;74.17;;;36.27;;
40847;SDS011;26570;50.962;5.340;2022-12-07T06:39:59;65.87;;;36.87;;
40847;SDS011;26570;50.962;5.340;2022-12-07T06:43:15;71.87;;;37.87;;
40847;SDS011;26570;50.962;5.340;2022-12-07T06:46:06;65.37;;;36.90;;
40847;SDS011;26570;50.962;5.340;2022-12-07T06:49:24;75.80;;;38.27;;
40847;SDS011;26570;50.962;5.340;2022-12-07T06:52:19;70.40;;;37.40;;
40847;SDS011;26570;50.962;5.340;2022-12-07T06:55:27;70.00;;;38.10;;
40847;SDS011;26570;50.962;5.340;2022-12-07T06:58:49;55.23;;;34.07;;
40847;SDS011;26570;50.962;5.340;2022-12-07T07:02:09;52.90;;;31.87;;
40847;SDS011;26570;50.962;5.340;2022-12-07T07:05:34;53.57;;;32.43;;
40847;SDS011;26570;50.962;5.340;2022-12-07T07:12:12;64.73;;;27.47;;
40847;SDS011;26570;50.962;5.340;2022-12-07T07:15:26;43.83;;;27.33;;
40847;SDS011;26570;50.962;5.340;2022-12-07T07:18:33;56.73;;;27.97;;
40847;SDS011;26570;50.962;5.340;2022-12-07T07:21:34;121.27;;;29.40;;
40847;SDS011;26570;50.962;5.340;2022-12-07T07:24:49;54.95;;;28.33;;
40847;SDS011;26570;50.962;5.340;2022-12-07T07:31:40;61.13;;;28.30;;
40847;SDS011;26570;50.962;5.340;2022-12-07T07:34:45;51.00;;;26.37;;
40847;SDS011;26570;50.962;5.340;2022-12-07T07:38:09;139.47;;;29.27;;
40847;SDS011;26570;50.962;5.340;2022-12-07T07:41:26;67.80;;;27.10;;
40847;SDS011;26570;50.962;5.340;2022-12-07T07:44:52;38.33;;;23.80;;
40847;SDS011;26570;50.962;5.340;2022-12-07T07:47:51;181.17;;;30.23;;
40847;SDS011;26570;50.962;5.340;2022-12-07T08:11:34;63.03;;;34.13;;
40847;SDS011;26570;50.962;5.340;2022-12-07T08:14:33;71.13;;;33.23;;
40847;SDS011;26570;50.962;5.340;2022-12-07T08:17:41;64.40;;;32.80;;
40847;SDS011;26570;50.962;5.340;2022-12-07T08:21:41;52.20;;;30.37;;
40847;SDS011;26570;50.962;5.340;2022-12-07T08:25:16;56.88;;;30.73;;
40847;SDS011;26570;50.962;5.340;2022-12-07T08:28:47;51.13;;;30.37;;
40847;SDS011;26570;50.962;5.340;2022-12-07T08:32:00;50.70;;;29.50;;
40847;SDS011;26570;50.962;5.340;2022-12-07T08:35:11;57.93;;;31.03;;
40847;SDS011;26570;50.962;5.340;2022-12-07T08:38:41;58.23;;;31.50;;
40847;SDS011;26570;50.962;5.340;2022-12-07T08:41:38;57.57;;;33.37;;
40847;SDS011;26570;50.962;5.340;2022-12-07T08:45:09;59.20;;;34.67;;
40847;SDS011;26570;50.962;5.340;2022-12-07T09:04:03;57.92;;;33.42;;
40847;SDS011;26570;50.962;5.340;2022-12-07T09:07:10;58.10;;;31.77;;
40847;SDS011;26570;50.962;5.340;2022-12-07T09:10:24;52.90;;;30.95;;
40847;SDS011;26570;50.962;5.340;2022-12-07T09:13:34;54.73;;;31.77;;
40847;SDS011;26570;50.962;5.340;2022-12-07T09:16:42;52.70;;;29.13;;
40847;SDS011;26570;50.962;5.340;2022-12-07T09:19:56;51.77;;;31.20;;
40847;SDS011;26570;50.962;5.340;2022-12-07T09:23:07;54.13;;;29.23;;
40847;SDS011;26570;50.962;5.340;2022-12-07T09:26:30;44.90;;;27.30;;
40847;SDS011;26570;50.962;5.340;2022-12-07T09:29:44;44.40;;;24.87;;
40847;SDS011;26570;50.962;5.340;2022-12-07T09:32:40;36.90;;;22.50;;
40847;SDS011;26570;50.962;5.340;2022-12-07T09:36:08;41.67;;;19.77;;
40847;SDS011;26570;50.962;5.340;2022-12-07T09:39:46;31.00;;;19.30;;
40847;SDS011;26570;50.962;5.340;2022-12-07T09:55:23;29.73;;;16.60;;
40847;SDS011;26570;50.962;5.340;2022-12-07T09:59:13;26.33;;;13.57;;
40847;SDS011;26570;50.962;5.340;2022-12-07T10:05:49;31.57;;;13.63;;
40847;SDS011;26570;50.962;5.340;2022-12-07T10:09:15;28.13;;;14.27;;
40847;SDS011;26570;50.962;5.340;2022-12-07T10:13:04;20.63;;;12.23;;
40847;SDS011;26570;50.962;5.340;2022-12-07T10:15:56;17.60;;;9.70;;
40847;SDS011;26570;50.962;5.340;2022-12-07T10:18:48;14.55;;;7.68;;
40847;SDS011;26570;50.962;5.340;2022-12-07T10:22:02;14.67;;;6.33;;
40847;SDS011;26570;50.962;5.340;2022-12-07T10:24:51;15.23;;;6.80;;
40847;SDS011;26570;50.962;5.340;2022-12-07T10:27:39;12.03;;;5.73;;
40847;SDS011;26570;50.962;5.340;2022-12-07T10:30:29;13.03;;;5.87;;
40847;SDS011;26570;50.962;5.340;2022-12-07T10:33:33;12.33;;;6.90;;
40847;SDS011;26570;50.962;5.340;2022-12-07T10:36:37;15.17;;;7.10;;
40847;SDS011;26570;50.962;5.340;2022-12-07T10:39:52;13.87;;;7.07;;
40847;SDS011;26570;50.962;5.340;2022-12-07T10:46:26;15.00;;;6.27;;
40847;SDS011;26570;50.962;5.340;2022-12-07T10:52:26;18.70;;;7.10;;
40847;SDS011;26570;50.962;5.340;2022-12-07T10:58:50;18.50;;;7.37;;
40847;SDS011;26570;50.962;5.340;2022-12-07T11:05:30;13.53;;;5.83;;
40847;SDS011;26570;50.962;5.340;2022-12-07T11:18:51;19.38;;;4.57;;
40847;SDS011;26570;50.962;5.340;2022-12-07T11:31:29;15.47;;;5.73;;
40847;SDS011;26570;50.962;5.340;2022-12-07T11:38:18;11.67;;;4.90;;
40847;SDS011;26570;50.962;5.340;2022-12-07T11:41:16;12.57;;;4.70;;
40847;SDS011;26570;50.962;5.340;2022-12-07T11:50:21;11.53;;;4.57;;
40847;SDS011;26570;50.962;5.340;2022-12-07T11:53:52;8.47;;;2.97;;
40847;SDS011;26570;50.962;5.340;2022-12-07T11:56:46;10.30;;;3.27;;
40847;SDS011;26570;50.962;5.340;2022-12-07T12:00:00;8.70;;;3.20;;
40847;SDS011;26570;50.962;5.340;2022-12-07T12:02:56;11.53;;;2.83;;
40847;SDS011;26570;50.962;5.340;2022-12-07T12:06:43;8.37;;;2.87;;
40847;SDS011;26570;50.962;5.340;2022-12-07T12:13:14;9.83;;;2.33;;
40847;SDS011;26570;50.962;5.340;2022-12-07T12:23:16;8.67;;;2.33;;
40847;SDS011;26570;50.962;5.340;2022-12-07T12:26:13;4.10;;;1.83;;
40847;SDS011;26570;50.962;5.340;2022-12-07T12:29:36;12.03;;;2.83;;
40847;SDS011;26570;50.962;5.340;2022-12-07T12:41:59;10.85;;;1.73;;
40847;SDS011;26570;50.962;5.340;2022-12-07T12:45:03;10.17;;;1.83;;
40847;SDS011;26570;50.962;5.340;2022-12-07T12:48:10;6.97;;;1.57;;
40847;SDS011;26570;50.962;5.340;2022-12-07T12:51:40;8.60;;;1.43;;
40847;SDS011;26570;50.962;5.340;2022-12-07T12:54:35;16.37;;;2.80;;
40847;SDS011;26570;50.962;5.340;2022-12-07T12:57:30;8.80;;;1.50;;
40847;SDS011;26570;50.962;5.340;2022-12-07T13:00:44;12.27;;;1.53;;
40847;SDS011;26570;50.962;5.340;2022-12-07T13:03:54;7.13;;;1.27;;
40847;SDS011;26570;50.962;5.340;2022-12-07T13:07:13;4.73;;;1.27;;
40847;SDS011;26570;50.962;5.340;2022-12-07T13:10:34;9.95;;;1.30;;
40847;SDS011;26570;50.962;5.340;2022-12-07T13:13:31;2.80;;;0.80;;
40847;SDS011;26570;50.962;5.340;2022-12-07T13:16:57;7.00;;;0.90;;
40847;SDS011;26570;50.962;5.340;2022-12-07T13:23:00;3.50;;;0.97;;
40847;SDS011;26570;50.962;5.340;2022-12-07T13:31:59;12.87;;;1.10;;
40847;SDS011;26570;50.962;5.340;2022-12-07T13:34:46;7.10;;;2.20;;
40847;SDS011;26570;50.962;5.340;2022-12-07T13:37:38;9.97;;;1.40;;
40847;SDS011;26570;50.962;5.340;2022-12-07T13:40:29;8.90;;;0.97;;
40847;SDS011;26570;50.962;5.340;2022-12-07T13:43:28;7.50;;;0.73;;
40847;SDS011;26570;50.962;5.340;2022-12-07T13:50:21;5.67;;;0.60;;
40847;SDS011;26570;50.962;5.340;2022-12-07T13:53:20;4.00;;;0.70;;
40847;SDS011;26570;50.962;5.340;2022-12-07T13:56:40;8.33;;;0.90;;
40847;SDS011;26570;50.962;5.340;2022-12-07T13:59:32;5.07;;;1.00;;
40847;SDS011;26570;50.962;5.340;2022-12-07T14:02:24;7.07;;;0.77;;
40847;SDS011;26570;50.962;5.340;2022-12-07T14:06:02;5.37;;;0.80;;
40847;SDS011;26570;50.962;5.340;2022-12-07T14:09:52;5.73;;;0.70;;
40847;SDS011;26570;50.962;5.340;2022-12-07T14:19:49;5.27;;;0.80;;
40847;SDS011;26570;50.962;5.340;2022-12-07T14:22:54;12.67;;;0.73;;
40847;SDS011;26570;50.962;5.340;2022-12-07T14:26:03;5.77;;;0.90;;
40847;SDS011;26570;50.962;5.340;2022-12-07T14:29:35;7.30;;;1.60;;
40847;SDS011;26570;50.962;5.340;2022-12-07T14:32:26;5.83;;;1.53;;
40847;SDS011;26570;50.962;5.340;2022-12-07T14:35:55;9.83;;;1.53;;
40847;SDS011;26570;50.962;5.340;2022-12-07T14:42:40;13.63;;;3.27;;
40847;SDS011;26570;50.962;5.340;2022-12-07T14:46:01;9.80;;;2.63;;
40847;SDS011;26570;50.962;5.340;2022-12-07T14:49:26;10.57;;;2.90;;
40847;SDS011;26570;50.962;5.340;2022-12-07T14:52:27;14.23;;;3.10;;
40847;SDS011;26570;50.962;5.340;2022-12-07T14:55:33;10.47;;;3.20;;
40847;SDS011;26570;50.962;5.340;2022-12-07T14:59:11;6.63;;;3.33;;
40847;SDS011;26570;50.962;5.340;2022-12-07T15:02:13;8.13;;;3.40;;
40847;SDS011;26570;50.962;5.340;2022-12-07T15:05:44;10.30;;;3.07;;
40847;SDS011;26570;50.962;5.340;2022-12-07T15:09:29;6.50;;;2.63;;
40847;SDS011;26570;50.962;5.340;2022-12-07T15:12:52;8.83;;;3.27;;
40847;SDS011;26570;50.962;5.340;2022-12-07T15:16:27;11.17;;;3.37;;
40847;SDS011;26570;50.962;5.340;2022-12-07T15:19:20;10.68;;;4.28;;
40847;SDS011;26570;50.962;5.340;2022-12-07T15:22:37;10.00;;;4.77;;
40847;SDS011;26570;50.962;5.340;2022-12-07T15:25:57;13.83;;;4.17;;
40847;SDS011;26570;50.962;5.340;2022-12-07T15:29:00;10.23;;;6.00;;
40847;SDS011;26570;50.962;5.340;2022-12-07T15:32:14;11.80;;;4.50;;
40847;SDS011;26570;50.962;5.340;2022-12-07T15:35:03;14.87;;;5.07;;
40847;SDS011;26570;50.962;5.340;2022-12-07T15:37:55;12.50;;;5.03;;
40847;SDS011;26570;50.962;5.340;2022-12-07T15:45:44;13.93;;;5.95;;
40847;SDS011;26570;50.962;5.340;2022-12-07T15:49:30;10.43;;;4.50;;
40847;SDS011;26570;50.962;5.340;2022-12-07T15:53:18;11.17;;;4.67;;
40847;SDS011;26570;50.962;5.340;2022-12-07T15:57:13;8.53;;;4.77;;
40847;SDS011;26570;50.962;5.340;2022-12-07T16:00:26;11.67;;;4.43;;
40847;SDS011;26570;50.962;5.340;2022-12-07T16:03:40;6.50;;;2.73;;
40847;SDS011;26570;50.962;5.340;2022-12-07T16:07:08;6.33;;;2.67;;
40847;SDS011;26570;50.962;5.340;2022-12-07T16:14:26;3.83;;;1.80;;
40847;SDS011;26570;50.962;5.340;2022-12-07T16:18:00;5.20;;;2.03;;
40847;SDS011;26570;50.962;5.340;2022-12-07T16:21:41;5.20;;;2.40;;
40847;SDS011;26570;50.962;5.340;2022-12-07T16:24:39;3.57;;;1.47;;
40847;SDS011;26570;50.962;5.340;2022-12-07T16:28:07;17.42;;;4.65;;
40847;SDS011;26570;50.962;5.340;2022-12-07T16:31:25;8.00;;;2.70;;
40847;SDS011;26570;50.962;5.340;2022-12-07T16:34:25;9.63;;;4.73;;
40847;SDS011;26570;50.962;5.340;2022-12-07T16:37:27;10.63;;;4.47;;
40847;SDS011;26570;50.962;5.340;2022-12-07T16:40:47;6.17;;;3.03;;
40847;SDS011;26570;50.962;5.340;2022-12-07T16:43:40;7.30;;;2.47;;
40847;SDS011;26570;50.962;5.340;2022-12-07T16:47:40;14.45;;;4.68;;
40847;SDS011;26570;50.962;5.340;2022-12-07T16:58:40;4.47;;;2.57;;
40847;SDS011;26570;50.962;5.340;2022-12-07T17:02:13;7.83;;;2.73;;
40847;SDS011;26570;50.962;5.340;2022-12-07T17:05:12;6.87;;;2.90;;
40847;SDS011;26570;50.962;5.340;2022-12-07T17:16:00;10.63;;;3.23;;
40847;SDS011;26570;50.962;5.340;2022-12-07T17:19:31;7.03;;;3.67;;
40847;SDS011;26570;50.962;5.340;2022-12-07T17:23:06;10.77;;;6.57;;
40847;SDS011;26570;50.962;5.340;2022-12-07T17:29:45;12.13;;;6.97;;
40847;SDS011;26570;50.962;5.340;2022-12-07T17:32:55;7.67;;;4.60;;
40847;SDS011;26570;50.962;5.340;2022-12-07T17:35:51;9.87;;;4.70;;
40847;SDS011;26570;50.962;5.340;2022-12-07T17:38:59;12.03;;;4.73;;
40847;SDS011;26570;50.962;5.340;2022-12-07T17:42:37;6.53;;;4.40;;
40847;SDS011;26570;50.962;5.340;2022-12-07T17:46:14;8.38;;;5.10;;
40847;SDS011;26570;50.962;5.340;2022-12-07T17:49:40;11.70;;;4.97;;
40847;SDS011;26570;50.962;5.340;2022-12-07T17:52:38;11.53;;;5.27;;
40847;SDS011;26570;50.962;5.340;2022-12-07T17:56:08;11.13;;;6.37;;
40847;SDS011;26570;50.962;5.340;2022-12-07T17:59:12;13.90;;;5.93;;
40847;SDS011;26570;50.962;5.340;2022-12-07T18:02:14;11.10;;;5.97;;
40847;SDS011;26570;50.962;5.340;2022-12-07T18:16:22;13.23;;;6.57;;
40847;SDS011;26570;50.962;5.340;2022-12-07T18:19:36;12.50;;;7.00;;
40847;SDS011;26570;50.962;5.340;2022-12-07T18:23:28;17.33;;;9.23;;
40847;SDS011;26570;50.962;5.340;2022-12-07T18:26:58;14.67;;;7.80;;
40847;SDS011;26570;50.962;5.340;2022-12-07T18:30:18;16.17;;;8.23;;
40847;SDS011;26570;50.962;5.340;2022-12-07T18:33:59;19.03;;;9.37;;
40847;SDS011;26570;50.962;5.340;2022-12-07T18:37:52;24.20;;;12.83;;
40847;SDS011;26570;50.962;5.340;2022-12-07T18:41:11;29.70;;;15.53;;
40847;SDS011;26570;50.962;5.340;2022-12-07T18:45:05;21.20;;;12.70;;
40847;SDS011;26570;50.962;5.340;2022-12-07T18:48:06;14.83;;;9.33;;
40847;SDS011;26570;50.962;5.340;2022-12-07T18:51:45;19.63;;;9.93;;
40847;SDS011;26570;50.962;5.340;2022-12-07T18:55:18;13.30;;;8.95;;
40847;SDS011;26570;50.962;5.340;2022-12-07T18:59:01;20.63;;;10.03;;
40847;SDS011;26570;50.962;5.340;2022-12-07T19:02:10;13.13;;;9.00;;
40847;SDS011;26570;50.962;5.340;2022-12-07T19:09:22;18.67;;;10.50;;
40847;SDS011;26570;50.962;5.340;2022-12-07T19:13:05;19.80;;;10.80;;
40847;SDS011;26570;50.962;5.340;2022-12-07T19:17:12;16.27;;;9.90;;
40847;SDS011;26570;50.962;5.340;2022-12-07T19:20:34;19.03;;;9.20;;
40847;SDS011;26570;50.962;5.340;2022-12-07T19:23:50;15.80;;;9.07;;
40847;SDS011;26570;50.962;5.340;2022-12-07T19:27:09;16.33;;;10.53;;
40847;SDS011;26570;50.962;5.340;2022-12-07T19:30:58;16.70;;;10.30;;
40847;SDS011;26570;50.962;5.340;2022-12-07T19:34:30;23.07;;;11.93;;
40847;SDS011;26570;50.962;5.340;2022-12-07T19:37:47;20.77;;;12.27;;
40847;SDS011;26570;50.962;5.340;2022-12-07T19:44:32;22.80;;;12.60;;
40847;SDS011;26570;50.962;5.340;2022-12-07T19:47:57;21.05;;;10.57;;
40847;SDS011;26570;50.962;5.340;2022-12-07T19:58:59;15.13;;;8.40;;
40847;SDS011;26570;50.962;5.340;2022-12-07T20:06:14;17.87;;;7.97;;
40847;SDS011;26570;50.962;5.340;2022-12-07T20:10:04;15.43;;;6.93;;
40847;SDS011;26570;50.962;5.340;2022-12-07T20:13:52;18.87;;;8.50;;
40847;SDS011;26570;50.962;5.340;2022-12-07T20:16:51;19.63;;;9.90;;
40847;SDS011;26570;50.962;5.340;2022-12-07T20:23:57;18.70;;;9.20;;
40847;SDS011;26570;50.962;5.340;2022-12-07T20:31:11;20.33;;;9.70;;
40847;SDS011;26570;50.962;5.340;2022-12-07T20:34:37;17.70;;;9.53;;
40847;SDS011;26570;50.962;5.340;2022-12-07T20:38:11;23.10;;;11.60;;
40847;SDS011;26570;50.962;5.340;2022-12-07T20:41:49;19.67;;;11.77;;
40847;SDS011;26570;50.962;5.340;2022-12-07T20:44:55;20.20;;;11.83;;
40847;SDS011;26570;50.962;5.340;2022-12-07T20:51:56;24.50;;;13.97;;
40847;SDS011;26570;50.962;5.340;2022-12-07T20:55:13;23.70;;;14.33;;
40847;SDS011;26570;50.962;5.340;2022-12-07T20:58:37;30.30;;;15.33;;
40847;SDS011;26570;50.962;5.340;2022-12-07T21:01:34;34.70;;;18.03;;
40847;SDS011;26570;50.962;5.340;2022-12-07T21:05:02;28.90;;;17.70;;
40847;SDS011;26570;50.962;5.340;2022-12-07T21:12:25;34.97;;;18.43;;
40847;SDS011;26570;50.962;5.340;2022-12-07T21:15:46;34.60;;;19.50;;
40847;SDS011;26570;50.962;5.340;2022-12-07T21:19:04;37.00;;;18.70;;
40847;SDS011;26570;50.962;5.340;2022-12-07T21:33:35;39.80;;;22.33;;
40847;SDS011;26570;50.962;5.340;2022-12-07T21:37:06;44.40;;;26.50;;
40847;SDS011;26570;50.962;5.340;2022-12-07T21:40:37;42.93;;;25.17;;
40847;SDS011;26570;50.962;5.340;2022-12-07T21:44:08;44.10;;;26.73;;
40847;SDS011;26570;50.962;5.340;2022-12-07T21:47:29;44.87;;;28.70;;
40847;SDS011;26570;50.962;5.340;2022-12-07T21:50:50;43.87;;;28.27;;
40847;SDS011;26570;50.962;5.340;2022-12-07T21:54:24;58.87;;;31.10;;
40847;SDS011;26570;50.962;5.340;2022-12-07T21:57:44;51.57;;;31.20;;
40847;SDS011;26570;50.962;5.340;2022-12-07T22:01:32;52.07;;;30.43;;
40847;SDS011;26570;50.962;5.340;2022-12-07T22:04:55;56.78;;;32.55;;
40847;SDS011;26570;50.962;5.340;2022-12-07T22:08:05;60.27;;;32.27;;
40847;SDS011;26570;50.962;5.340;2022-12-07T22:11:20;52.63;;;32.70;;
40847;SDS011;26570;50.962;5.340;2022-12-07T22:15:00;55.63;;;32.03;;
40847;SDS011;26570;50.962;5.340;2022-12-07T22:18:57;47.53;;;31.00;;
40847;SDS011;26570;50.962;5.340;2022-12-07T22:22:13;46.37;;;28.93;;
40847;SDS011;26570;50.962;5.340;2022-12-07T22:25:44;51.60;;;28.73;;
40847;SDS011;26570;50.962;5.340;2022-12-07T22:29:13;47.30;;;28.97;;
40847;SDS011;26570;50.962;5.340;2022-12-07T22:32:38;44.53;;;27.90;;
40847;SDS011;26570;50.962;5.340;2022-12-07T22:36:18;47.53;;;30.10;;
40847;SDS011;26570;50.962;5.340;2022-12-07T22:42:59;45.97;;;29.07;;
40847;SDS011;26570;50.962;5.340;2022-12-07T22:49:07;46.07;;;28.53;;
40847;SDS011;26570;50.962;5.340;2022-12-07T22:52:15;48.10;;;29.37;;
40847;SDS011;26570;50.962;5.340;2022-12-07T22:56:23;44.27;;;27.77;;
40847;SDS011;26570;50.962;5.340;2022-12-07T22:59:50;43.13;;;27.60;;
